Time;durP1;ratioP1;P1;durP2;ratioP2;P2;SDS_P1;SDS_P2;PMS_P1;PMS_P2;Temp;Humidity;BMP_temperature;BMP_pressure;BME280_temperature;BME280_humidity;BME280_pressure;Samples;Min_cycle;Max_cycle;Signal;HPM_P1;HPM_P2
2022/04/28 00:01:51;;;;;;;17.67;7.50;;;3.90;99.90;;;;;;5014074;28;20038;-85
2022/04/28 00:04:17;;;;;;;21.00;7.33;;;3.80;99.90;;;;;;5015424;28;20050;-85
2022/04/28 00:06:43;;;;;;;18.60;7.73;;;3.80;99.90;;;;;;5032400;28;20046;-85
2022/04/28 00:09:08;;;;;;;20.10;7.40;;;3.90;99.90;;;;;;5032227;28;20041;-84
2022/04/28 00:11:34;;;;;;;16.40;7.27;;;3.80;99.90;;;;;;5033071;28;20065;-84
2022/04/28 00:14:00;;;;;;;18.37;7.33;;;3.70;99.90;;;;;;5014870;28;20057;-84
2022/04/28 00:16:26;;;;;;;16.97;6.90;;;3.70;99.90;;;;;;5014429;28;20041;-84
2022/04/28 00:18:52;;;;;;;14.33;6.80;;;3.70;99.90;;;;;;5032543;28;20041;-84
2022/04/28 00:21:17;;;;;;;18.30;7.80;;;3.60;99.90;;;;;;5032527;28;20045;-84
2022/04/28 00:23:43;;;;;;;20.37;8.10;;;3.60;99.90;;;;;;5014000;28;20045;-84
2022/04/28 00:26:09;;;;;;;18.83;7.67;;;3.60;99.90;;;;;;5014709;28;20481;-84
2022/04/28 00:28:34;;;;;;;22.70;7.90;;;3.50;99.90;;;;;;5032841;28;20088;-84
2022/04/28 00:31:00;;;;;;;15.77;6.80;;;3.40;99.90;;;;;;5031736;28;20520;-84
2022/04/28 00:33:27;;;;;;;15.20;7.70;;;3.40;99.90;;;;;;5032608;28;20045;-84
2022/04/28 00:35:53;;;;;;;17.43;7.30;;;3.30;99.90;;;;;;5031588;28;20445;-84
2022/04/28 00:38:19;;;;;;;17.50;7.47;;;3.30;99.90;;;;;;5032259;28;20048;-84
2022/04/28 00:40:44;;;;;;;17.83;7.53;;;3.20;99.90;;;;;;5032372;28;20041;-84
2022/04/28 00:43:19;;;;;;;18.50;7.50;;;3.20;99.90;;;;;;5032052;28;20045;-84
2022/04/28 00:45:48;;;;;;;16.40;7.13;;;3.20;99.90;;;;;;5014508;28;20441;-84
2022/04/28 00:51:00;;;;;;;;;;;3.00;99.90;;;;;;5015176;28;20484;-84
2022/04/28 00:53:29;;;;;;;17.33;7.57;;;3.00;99.90;;;;;;5018255;28;20316;-84
2022/04/28 00:55:56;;;;;;;18.50;7.43;;;2.90;99.90;;;;;;5017616;28;20093;-85
2022/04/28 00:58:23;;;;;;;18.27;6.93;;;2.80;99.90;;;;;;5035104;28;20520;-84
2022/04/28 01:00:48;;;;;;;17.70;7.10;;;2.70;99.90;;;;;;5018002;28;20077;-84
2022/04/28 01:03:14;;;;;;;17.87;8.40;;;2.70;99.90;;;;;;5017942;28;20072;-84
2022/04/28 01:05:40;;;;;;;17.53;7.47;;;2.60;99.90;;;;;;5016968;28;20053;-84
2022/04/28 01:08:06;;;;;;;20.00;7.93;;;2.60;99.90;;;;;;5036074;28;20112;-84
2022/04/28 01:10:32;;;;;;;19.17;7.13;;;2.60;99.90;;;;;;5018043;28;20112;-84
2022/04/28 01:12:58;;;;;;;18.63;7.57;;;3.70;99.90;;;;;;5017388;28;20044;-84
2022/04/28 01:15:23;;;;;;;16.77;7.53;;;2.50;99.90;;;;;;5018263;28;20049;-84
2022/04/28 01:17:49;;;;;;;17.13;7.73;;;2.50;99.90;;;;;;5017590;28;20103;-84
2022/04/28 01:20:14;;;;;;;17.77;7.50;;;2.40;99.90;;;;;;5035088;28;20046;-84
2022/04/28 01:22:41;;;;;;;17.47;7.63;;;2.40;99.90;;;;;;5035285;28;20078;-84
2022/04/28 01:25:11;;;;;;;16.40;7.67;;;2.40;99.90;;;;;;5017322;28;20424;-84
2022/04/28 01:27:37;;;;;;;18.33;7.57;;;2.30;99.90;;;;;;5017997;28;20046;-84
2022/04/28 01:30:10;;;;;;;16.83;8.03;;;2.30;99.90;;;;;;5017631;28;20406;-84
2022/04/28 01:32:35;;;;;;;17.97;8.50;;;2.20;99.90;;;;;;5017120;28;20489;-84
2022/04/28 01:35:01;;;;;;;16.10;7.93;;;2.20;99.90;;;;;;5017405;28;20120;-84
2022/04/28 01:37:26;;;;;;;17.10;8.23;;;2.20;99.90;;;;;;5035427;28;20481;-84
2022/04/28 01:39:55;;;;;;;17.37;7.80;;;2.20;99.90;;;;;;5016337;28;20052;-84
2022/04/28 01:42:22;;;;;;;18.07;8.43;;;2.10;99.90;;;;;;5017498;28;20042;-84
2022/04/28 01:44:49;;;;;;;20.50;8.70;;;2.10;99.90;;;;;;5035104;28;20049;-85
2022/04/28 01:47:14;;;;;;;18.63;7.93;;;2.10;99.90;;;;;;5017105;28;20099;-84
2022/04/28 01:49:40;;;;;;;18.73;8.40;;;2.00;99.90;;;;;;5035022;28;20421;-84
2022/04/28 01:54:58;;;;;;;17.52;7.35;;;2.00;99.90;;;;;;5016173;28;20053;-84
2022/04/28 01:57:26;;;;;;;20.57;8.03;;;1.90;99.90;;;;;;5016825;28;20053;-84
2022/04/28 01:59:51;;;;;;;19.50;8.33;;;1.80;99.90;;;;;;5016861;28;20481;-84
2022/04/28 02:02:17;;;;;;;20.57;8.53;;;1.80;99.90;;;;;;5048747;28;20052;-84
2022/04/28 02:04:42;;;;;;;18.10;8.13;;;1.80;99.90;;;;;;5036228;28;20041;-84
2022/04/28 02:07:08;;;;;;;17.93;8.73;;;1.70;99.90;;;;;;5054756;28;20037;-85
2022/04/28 02:09:34;;;;;;;21.53;8.23;;;1.70;99.90;;;;;;5053595;28;20041;-84
2022/04/28 02:11:59;;;;;;;17.07;8.30;;;1.70;99.90;;;;;;5036437;28;20037;-84
2022/04/28 02:14:25;;;;;;;20.93;8.73;;;1.60;99.90;;;;;;5054151;28;20098;-85
2022/04/28 02:16:51;;;;;;;19.27;8.60;;;1.60;99.90;;;;;;5037042;28;20057;-85
2022/04/28 02:19:16;;;;;;;18.57;7.77;;;1.60;99.90;;;;;;5037442;28;20052;-85
2022/04/28 02:21:42;;;;;;;19.17;8.47;;;1.50;99.90;;;;;;5035647;28;20045;-85
2022/04/28 02:24:08;;;;;;;16.43;7.87;;;1.70;99.90;;;;;;5054506;28;20082;-85
2022/04/28 02:26:34;;;;;;;18.17;7.80;;;1.40;99.90;;;;;;5054454;28;20388;-85
2022/04/28 02:28:59;;;;;;;22.37;8.27;;;1.40;99.90;;;;;;5053358;28;20041;-84
2022/04/28 02:31:25;;;;;;;21.33;8.30;;;1.40;99.90;;;;;;5054153;28;20051;-85
2022/04/28 02:33:50;;;;;;;18.77;8.57;;;1.30;99.90;;;;;;5035960;28;20076;-84
2022/04/28 02:36:16;;;;;;;20.97;8.07;;;1.30;99.90;;;;;;5053380;28;20053;-84
2022/04/28 02:38:42;;;;;;;17.17;8.60;;;1.30;99.90;;;;;;5053956;28;20068;-85
2022/04/28 02:41:08;;;;;;;17.33;7.80;;;1.20;99.90;;;;;;5054085;28;20492;-85
2022/04/28 02:43:34;;;;;;;20.00;7.93;;;1.20;99.90;;;;;;5035634;28;20041;-85
2022/04/28 02:46:00;;;;;;;21.77;8.57;;;1.20;99.90;;;;;;5035820;28;20438;-84
2022/04/28 02:48:25;;;;;;;20.43;8.33;;;1.20;99.90;;;;;;5036226;28;20041;-85
2022/04/28 02:50:52;;;;;;;17.60;8.30;;;1.20;99.90;;;;;;5053161;28;20041;-84
2022/04/28 02:53:17;;;;;;;19.33;8.07;;;1.20;99.90;;;;;;5035990;28;20465;-84
2022/04/28 02:55:43;;;;;;;18.13;8.40;;;1.10;99.90;;;;;;5053293;28;20088;-84
2022/04/28 02:58:08;;;;;;;20.27;8.50;;;1.10;99.90;;;;;;5052876;28;20119;-84
2022/04/28 03:00:37;;;;;;;21.40;9.27;;;1.10;99.90;;;;;;5054017;28;20049;-84
2022/04/28 03:03:03;;;;;;;24.03;9.40;;;1.00;99.90;;;;;;5035362;28;20040;-85
2022/04/28 03:05:29;;;;;;;21.93;8.97;;;1.00;99.90;;;;;;5034797;28;20131;-85
2022/04/28 03:10:52;;;;;;;23.15;9.32;;;1.00;99.90;;;;;;5052520;28;20053;-84
2022/04/28 03:13:20;;;;;;;19.83;8.27;;;1.00;99.90;;;;;;5035875;28;20045;-85
2022/04/28 03:15:47;;;;;;;23.53;8.90;;;1.00;99.90;;;;;;5053356;28;20084;-85
2022/04/28 03:18:14;;;;;;;22.07;9.33;;;1.00;99.90;;;;;;5052597;28;20043;-84
2022/04/28 03:20:40;;;;;;;19.97;8.07;;;1.00;99.90;;;;;;5052900;28;20551;-85
2022/04/28 03:23:06;;;;;;;19.37;8.57;;;0.90;99.90;;;;;;5053333;28;20176;-85
2022/04/28 03:25:31;;;;;;;22.90;9.23;;;0.90;99.90;;;;;;5052438;28;20400;-84
2022/04/28 03:27:57;;;;;;;20.47;8.97;;;0.90;99.90;;;;;;5035076;28;20056;-85
2022/04/28 03:30:23;;;;;;;22.87;8.53;;;0.90;99.90;;;;;;5035103;28;20064;-84
2022/04/28 03:32:49;;;;;;;20.60;9.30;;;0.90;99.90;;;;;;5034314;28;20489;-84
2022/04/28 03:35:15;;;;;;;19.63;9.00;;;0.80;99.90;;;;;;5035159;28;20048;-85
2022/04/28 03:37:44;;;;;;;22.63;9.33;;;0.80;99.90;;;;;;5034927;28;20049;-85
2022/04/28 03:40:10;;;;;;;22.30;9.03;;;0.90;99.90;;;;;;5052447;28;20084;-85
2022/04/28 03:42:36;;;;;;;18.60;9.20;;;0.90;99.90;;;;;;5035020;28;20462;-85
2022/04/28 03:45:01;;;;;;;21.87;9.83;;;0.90;99.90;;;;;;5052872;28;20115;-85
2022/04/28 03:47:32;;;;;;;19.43;8.90;;;0.90;99.90;;;;;;5051770;28;20049;-84
2022/04/28 03:49:58;;;;;;;22.73;9.83;;;0.90;99.90;;;;;;5052662;28;20044;-85
2022/04/28 03:52:23;;;;;;;21.80;9.00;;;1.00;99.90;;;;;;5052730;28;20052;-84
2022/04/28 03:54:49;;;;;;;25.77;11.43;;;1.00;99.90;;;;;;5033951;28;20045;-85
2022/04/28 03:57:15;;;;;;;19.53;9.23;;;1.10;99.90;;;;;;5034767;28;20044;-85
2022/04/28 03:59:40;;;;;;;25.87;10.40;;;1.20;99.90;;;;;;5052573;28;20044;-84
2022/04/28 04:02:06;;;;;;;28.77;12.97;;;1.20;99.90;;;;;;5045952;28;20123;-84
2022/04/28 04:04:32;;;;;;;25.80;11.07;;;1.40;99.90;;;;;;5050070;28;20044;-84
2022/04/28 04:06:58;;;;;;;24.77;10.67;;;1.50;99.90;;;;;;5051206;28;20037;-84
2022/04/28 04:09:23;;;;;;;25.17;11.40;;;1.70;99.90;;;;;;5052230;28;20507;-85
2022/04/28 04:11:49;;;;;;;22.77;10.90;;;1.70;99.90;;;;;;5052369;28;20037;-84
2022/04/28 04:14:14;;;;;;;20.53;10.80;;;2.00;99.90;;;;;;5034276;28;20090;-84
2022/04/28 04:16:40;;;;;;;25.07;13.10;;;1.90;99.90;;;;;;5052373;28;20037;-84
2022/04/28 04:19:06;;;;;;;23.73;12.20;;;2.00;99.90;;;;;;5034779;28;20041;-84
2022/04/28 04:21:31;;;;;;;21.10;9.83;;;2.30;99.90;;;;;;5051968;28;20044;-84
2022/04/28 04:23:57;;;;;;;20.00;10.13;;;2.20;99.90;;;;;;5052425;28;20120;-84
2022/04/28 04:26:23;;;;;;;22.63;9.73;;;2.30;99.90;;;;;;5054311;28;20083;-84
2022/04/28 04:28:48;;;;;;;24.30;10.37;;;2.40;99.90;;;;;;5055260;28;20033;-84
2022/04/28 04:33:58;;;;;;;25.50;9.85;;;2.50;99.90;;;;;;5038205;28;20871;-84
2022/04/28 04:36:24;;;;;;;26.73;11.27;;;2.60;99.90;;;;;;5038128;28;20045;-84
2022/04/28 04:38:49;;;;;;;23.87;10.40;;;2.70;99.90;;;;;;5038114;28;20076;-85
2022/04/28 04:41:15;;;;;;;24.63;10.87;;;2.80;99.90;;;;;;5056440;28;20049;-85
2022/04/28 04:43:40;;;;;;;21.20;10.80;;;2.90;99.90;;;;;;5055483;28;20091;-84
2022/04/28 04:46:06;;;;;;;33.00;18.33;;;3.10;99.90;;;;;;5038152;28;20470;-85
2022/04/28 04:48:32;;;;;;;23.70;10.27;;;3.00;99.90;;;;;;5038730;28;20049;-84
2022/04/28 04:50:57;;;;;;;25.70;10.63;;;3.10;99.90;;;;;;5036829;28;20045;-84
2022/04/28 04:53:23;;;;;;;23.63;10.40;;;3.20;99.90;;;;;;5038200;28;20045;-84
2022/04/28 04:55:49;;;;;;;22.43;9.70;;;3.30;99.90;;;;;;5055583;28;20053;-84
2022/04/28 04:58:17;;;;;;;25.43;10.47;;;3.50;99.90;;;;;;5037625;28;20438;-84
2022/04/28 05:00:42;;;;;;;27.27;9.53;;;3.60;99.90;;;;;;5055879;28;20094;-84
2022/04/28 05:03:08;;;;;;;18.10;8.77;;;3.60;99.90;;;;;;5037127;28;20415;-85
2022/04/28 05:05:33;;;;;;;21.27;10.17;;;3.70;99.90;;;;;;5056352;28;20045;-85
2022/04/28 05:07:59;;;;;;;19.37;9.43;;;3.80;99.90;;;;;;5038036;28;20052;-85
2022/04/28 05:10:25;;;;;;;22.20;9.57;;;3.90;99.90;;;;;;5055013;28;20045;-85
2022/04/28 05:12:50;;;;;;;21.07;9.67;;;4.00;99.90;;;;;;5037482;28;20469;-85
2022/04/28 05:15:16;;;;;;;18.00;8.87;;;4.10;99.90;;;;;;5037976;28;20053;-85
2022/04/28 05:17:41;;;;;;;21.30;9.57;;;4.20;99.90;;;;;;5054702;28;20037;-85
2022/04/28 05:20:07;;;;;;;21.73;9.07;;;4.30;99.90;;;;;;5055904;28;20045;-85
2022/04/28 05:22:33;;;;;;;22.17;9.70;;;4.40;99.90;;;;;;5037458;28;20049;-85
2022/04/28 05:24:59;;;;;;;21.43;9.93;;;4.50;99.90;;;;;;5036642;28;20087;-85
2022/04/28 05:27:25;;;;;;;18.77;9.17;;;4.60;99.90;;;;;;5037871;28;20453;-85
2022/04/28 05:29:52;;;;;;;19.53;9.23;;;4.70;99.90;;;;;;5055194;28;20041;-86
2022/04/28 05:32:17;;;;;;;19.27;9.63;;;4.80;99.90;;;;;;5036762;28;20041;-86
2022/04/28 05:34:43;;;;;;;18.20;9.60;;;4.90;99.90;;;;;;5055560;28;20044;-84
2022/04/28 05:37:12;;;;;;;17.67;9.23;;;4.90;99.90;;;;;;5040781;28;20045;-94
2022/04/28 05:39:45;;;;;;;18.90;9.13;;;5.00;99.90;;;;;;5036550;28;20041;-88
2022/04/28 05:42:11;;;;;;;18.88;8.70;;;5.30;99.90;;;;;;5055673;28;20464;-92
2022/04/28 05:47:25;;;;;;;17.00;8.87;;;5.20;99.90;;;;;;5055443;28;20053;-85
2022/04/28 05:49:51;;;;;;;20.77;9.70;;;5.40;99.90;;;;;;5055432;28;20059;-88
2022/04/28 05:52:16;;;;;;;22.33;9.30;;;5.50;99.90;;;;;;5055092;28;20143;-89
2022/04/28 05:54:42;;;;;;;17.50;9.23;;;5.60;99.90;;;;;;5036397;28;20045;-89
2022/04/28 05:57:08;;;;;;;17.83;8.63;;;5.70;99.90;;;;;;5054717;28;20097;-92
2022/04/28 05:59:33;;;;;;;18.53;9.03;;;5.80;99.90;;;;;;5036687;28;20041;-89
2022/04/28 06:01:59;;;;;;;17.03;8.63;;;5.90;99.90;;;;;;5046310;28;20098;-89
2022/04/28 06:04:25;;;;;;;17.10;8.83;;;6.00;99.90;;;;;;5037214;28;20115;-91
2022/04/28 06:06:54;;;;;;;20.80;8.67;;;6.10;99.90;;;;;;5053707;28;20494;-89
2022/04/28 06:09:19;;;;;;;18.13;8.50;;;6.70;99.90;;;;;;5036608;28;20400;-86
2022/04/28 06:12:06;;;;;;;16.97;7.77;;;6.20;99.90;;;;;;5054398;28;20060;-87
2022/04/28 06:14:35;;;;;;;15.57;7.60;;;6.90;99.90;;;;;;5036254;28;20500;-89
2022/04/28 06:17:04;;;;;;;14.10;7.33;;;6.40;99.90;;;;;;5054790;28;20550;-88
2022/04/28 06:19:32;;;;;;;19.27;7.88;;;6.40;99.90;;;;;;5037302;28;20049;-88
2022/04/28 06:21:59;;;;;;;17.85;8.00;;;6.60;99.90;;;;;;5053257;28;20390;-88
2022/04/28 06:24:43;;;;;;;16.05;7.50;;;6.60;99.90;;;;;;5054645;28;20049;-86
2022/04/28 06:27:18;;;;;;;14.87;7.60;;;6.70;99.90;;;;;;5034474;28;20049;-89
2022/04/28 06:29:58;;;;;;;15.85;7.40;;;6.80;99.90;;;;;;5033111;28;20103;-90
2022/04/28 06:32:30;;;;;;;15.43;6.93;;;6.50;99.90;;;;;;5054241;28;20060;-92
2022/04/28 06:34:56;;;;;;;15.07;6.87;;;7.00;99.90;;;;;;5053755;28;20102;-91
2022/04/28 06:37:22;;;;;;;17.70;6.82;;;7.20;99.90;;;;;;5053840;28;20468;-89
2022/04/28 06:42:23;;;;;;;14.55;6.18;;;7.10;99.90;;;;;;5012197;28;20049;-92
2022/04/28 06:45:01;;;;;;;13.57;5.78;;;7.10;99.90;;;;;;4996683;28;20137;-90
2022/04/28 06:47:28;;;;;;;13.68;5.88;;;7.10;99.90;;;;;;5014169;28;20056;-91
2022/04/28 06:49:57;;;;;;;13.27;6.07;;;7.70;99.90;;;;;;4995562;28;20494;-91
2022/04/28 06:52:23;;;;;;;16.37;5.97;;;8.10;99.90;;;;;;4997076;28;20152;-91
2022/04/28 06:54:58;;;;;;;15.38;6.43;;;7.30;99.90;;;;;;4996776;28;20661;-91
2022/04/28 06:57:29;;;;;;;14.57;5.90;;;7.50;99.90;;;;;;4996472;28;20042;-91
2022/04/28 06:59:55;;;;;;;15.80;6.20;;;7.70;99.90;;;;;;4996547;28;20440;-90
2022/04/28 07:02:21;;;;;;;14.38;6.18;;;7.90;99.90;;;;;;5014294;28;20118;-92
2022/04/28 07:04:47;;;;;;;14.48;5.57;;;7.80;99.90;;;;;;5004467;28;20045;-90
2022/04/28 07:07:14;;;;;;;12.52;5.20;;;7.80;99.90;;;;;;4996427;28;20045;-90
2022/04/28 07:09:39;;;;;;;13.02;5.30;;;8.00;99.90;;;;;;5013313;28;20541;-90
2022/04/28 07:14:51;;;;;;;13.93;5.45;;;8.20;99.90;;;;;;4996302;28;20049;-90
2022/04/28 07:17:17;;;;;;;13.32;5.50;;;7.80;99.90;;;;;;4995388;28;20042;-90
2022/04/28 07:19:43;;;;;;;12.10;5.25;;;7.90;99.90;;;;;;5013423;28;20393;-90
2022/04/28 07:22:08;;;;;;;14.68;5.30;;;8.50;99.90;;;;;;4996300;28;20050;-90
2022/04/28 07:24:37;;;;;;;13.18;5.60;;;9.10;99.90;;;;;;5012388;28;20486;-91
2022/04/28 07:27:11;;;;;;;14.40;5.60;;;9.50;99.90;;;;;;4996923;28;20042;-90
2022/04/28 07:29:46;;;;;;;14.20;4.85;;;8.10;99.90;;;;;;4996793;28;20524;-90
2022/04/28 07:32:15;;;;;;;15.63;5.90;;;8.90;99.90;;;;;;5013545;28;20042;-89
2022/04/28 07:34:40;;;;;;;11.35;5.10;;;9.60;99.90;;;;;;5013163;28;20415;-90
2022/04/28 07:37:06;;;;;;;13.07;4.97;;;9.30;99.90;;;;;;4995735;28;20080;-89
2022/04/28 07:39:32;;;;;;;15.40;5.40;;;9.20;99.90;;;;;;5012263;28;20081;-90
2022/04/28 07:42:00;;;;;;;12.38;6.28;;;9.40;99.90;;;;;;4991642;28;20046;-91
2022/04/28 07:44:35;;;;;;;13.70;5.10;;;10.40;99.90;;;;;;4993259;28;20057;-91
2022/04/28 07:47:01;;;;;;;12.75;5.10;;;9.50;99.90;;;;;;4992873;28;20049;-90
2022/04/28 07:49:45;;;;;;;15.55;5.63;;;9.80;99.90;;;;;;4992640;28;20042;-90
2022/04/28 07:52:16;;;;;;;14.65;5.60;;;9.70;99.90;;;;;;4993968;28;20049;-90
2022/04/28 07:54:42;;;;;;;13.80;5.13;;;10.80;99.90;;;;;;4995104;28;20173;-90
2022/04/28 07:57:07;;;;;;;12.32;5.30;;;9.90;99.90;;;;;;4998013;28;20078;-89
2022/04/28 07:59:45;;;;;;;11.20;5.07;;;9.60;99.90;;;;;;4993446;28;20045;-89
2022/04/28 08:02:14;;;;;;;12.65;5.75;;;10.00;99.90;;;;;;4991571;28;20108;-88
2022/04/28 08:04:40;;;;;;;12.15;5.28;;;10.40;99.90;;;;;;4992284;28;20382;-89
2022/04/28 08:07:08;;;;;;;10.80;4.43;;;10.90;99.90;;;;;;4997842;28;20046;-90
2022/04/28 08:09:43;;;;;;;12.95;4.78;;;11.50;99.90;;;;;;4993247;28;20038;-89
2022/04/28 08:12:24;;;;;;;13.52;5.13;;;11.10;99.90;;;;;;4992084;28;20089;-88
2022/04/28 08:15:02;;;;;;;;;;;10.70;99.90;;;;;;4991527;28;20046;-88
2022/04/28 08:17:28;;;;;;;13.57;5.75;;;10.60;99.90;;;;;;4993398;28;19922;-87
2022/04/28 08:19:53;;;;;;;13.10;5.70;;;10.60;99.90;;;;;;4991986;28;20401;-89
2022/04/28 08:22:19;;;;;;;14.00;5.95;;;10.40;99.90;;;;;;4991529;28;20054;-87
2022/04/28 08:24:44;;;;;;;13.57;5.60;;;10.60;99.90;;;;;;4991669;28;20477;-89
2022/04/28 08:27:11;;;;;;;12.85;5.53;;;10.70;99.90;;;;;;4991828;28;20042;-96
2022/04/28 08:29:46;;;;;;;14.82;5.40;;;11.50;99.90;;;;;;4992156;28;20077;-84
2022/04/28 08:32:12;;;;;;;13.07;4.95;;;10.90;99.90;;;;;;4992248;28;20082;-89
2022/04/28 08:34:53;;;;;;;14.00;5.05;;;12.20;99.90;;;;;;4992436;28;20135;-91
2022/04/28 08:38:10;;;;;;;10.57;4.80;;;10.80;99.90;;;;;;4992626;28;20042;-91
2022/04/28 08:40:42;;;;;;;13.13;5.10;;;11.10;99.90;;;;;;4961177;28;20082;-84
2022/04/28 08:43:08;;;;;;;14.48;4.90;;;11.20;99.90;;;;;;5012539;28;20054;-86
2022/04/28 08:46:50;;;;;;;11.75;4.97;;;11.30;99.90;;;;;;4994554;28;20034;-90
2022/04/28 08:48:43;;;;;;;12.73;4.85;;;11.10;99.90;;;;;;4994178;28;20065;-90
2022/04/28 08:51:25;;;;;;;13.82;4.93;;;11.40;99.90;;;;;;4995152;28;20046;-88
2022/04/28 08:53:54;;;;;;;12.25;5.00;;;10.80;99.90;;;;;;5014890;28;20046;-86
2022/04/28 08:56:28;;;;;;;11.05;4.45;;;12.40;99.90;;;;;;4994107;28;20072;-86
2022/04/28 08:59:00;;;;;;;13.65;4.30;;;11.60;99.90;;;;;;5011868;28;20129;-86
2022/04/28 09:01:29;;;;;;;13.48;3.97;;;11.00;99.90;;;;;;5012756;28;20049;-86
2022/04/28 09:04:02;;;;;;;11.90;3.90;;;11.20;99.90;;;;;;4994137;28;20413;-86
2022/04/28 09:06:29;;;;;;;;;;;11.10;99.90;;;;;;4995199;28;20050;-86
2022/04/28 09:08:58;;;;;;;12.02;3.90;;;11.40;99.90;;;;;;5012253;28;20285;-86
2022/04/28 09:11:26;;;;;;;10.38;4.00;;;12.30;99.90;;;;;;5011647;28;20049;-86
2022/04/28 09:14:15;;;;;;;14.50;4.30;;;11.60;99.90;;;;;;4998640;28;20046;-86
2022/04/28 09:16:49;;;;;;;10.57;3.92;;;11.80;99.90;;;;;;5014941;28;20046;-86
2022/04/28 09:19:27;;;;;;;13.98;4.10;;;11.80;99.90;;;;;;4998939;28;20045;-86
2022/04/28 09:22:14;;;;;;;11.38;3.90;;;11.90;99.90;;;;;;4998638;28;20049;-86
2022/04/28 09:24:44;;;;;;;10.85;4.13;;;12.50;99.90;;;;;;4998103;28;20137;-86
2022/04/28 09:27:11;;;;;;;10.43;3.95;;;11.90;99.90;;;;;;4998559;28;20125;-86
2022/04/28 09:29:41;;;;;;;10.98;3.85;;;12.00;99.90;;;;;;4997930;28;20546;-86
2022/04/28 09:32:10;;;;;;;11.82;3.83;;;12.90;99.90;;;;;;5015605;28;20544;-86
2022/04/28 09:34:47;;;;;;;13.68;3.88;;;12.40;99.90;;;;;;5015934;28;20100;-86
2022/04/28 09:37:20;;;;;;;11.20;3.83;;;12.50;99.90;;;;;;5015851;28;20073;-86
2022/04/28 09:42:40;;;;;;;11.88;3.53;;;12.20;99.90;;;;;;5015731;28;20054;-86
2022/04/28 09:45:20;;;;;;;11.82;3.50;;;11.90;99.90;;;;;;4997681;28;20137;-86
2022/04/28 09:47:46;;;;;;;8.68;3.08;;;13.10;99.90;;;;;;5014876;28;20045;-86
2022/04/28 09:50:15;;;;;;;10.50;3.33;;;12.30;99.90;;;;;;5015149;28;20050;-86
2022/04/28 09:52:52;;;;;;;11.30;3.47;;;12.50;99.90;;;;;;4996951;28;20085;-86
2022/04/28 09:55:18;;;;;;;;;;;12.50;99.90;;;;;;4998371;28;20053;-87
2022/04/28 09:57:44;;;;;;;11.70;3.50;;;13.00;99.90;;;;;;4997799;28;20024;-93
2022/04/28 10:00:14;;;;;;;11.48;3.28;;;12.40;99.90;;;;;;4996940;28;20050;-86
2022/04/28 10:02:43;;;;;;;15.52;3.88;;;12.60;99.90;;;;;;4994523;28;20379;-88
2022/04/28 10:05:09;;;;;;;8.95;3.63;;;12.80;99.90;;;;;;4985884;28;20432;-87
2022/04/28 10:07:36;;;;;;;11.05;3.88;;;11.70;99.90;;;;;;4996578;28;20050;-87
2022/04/28 10:10:03;;;;;;;9.30;3.50;;;12.30;99.90;;;;;;4996491;28;20038;-87
2022/04/28 10:12:29;;;;;;;8.48;3.40;;;12.30;99.90;;;;;;5016295;28;20141;-87
2022/04/28 10:15:11;;;;;;;9.07;3.50;;;12.20;99.90;;;;;;5014674;28;20521;-87
2022/04/28 10:17:46;;;;;;;10.85;3.80;;;12.20;99.90;;;;;;5015016;28;20481;-87
2022/04/28 10:20:28;;;;;;;11.35;4.07;;;12.70;99.90;;;;;;4997217;28;20046;-87
2022/04/28 10:22:56;;;;;;;9.93;3.92;;;12.90;99.90;;;;;;4996473;28;20129;-86
2022/04/28 10:33:49;;;;;;;9.50;3.78;;;13.00;99.90;;;;;;4995435;28;20042;-86
2022/04/28 10:36:30;;;;;;;13.10;4.07;;;13.50;99.90;;;;;;5014995;28;20046;-87
2022/04/28 10:39:07;;;;;;;11.55;4.05;;;13.80;99.90;;;;;;4995369;28;20041;-87
2022/04/28 10:41:34;;;;;;;10.43;4.10;;;14.20;99.90;;;;;;5012613;28;20046;-86
2022/04/28 10:44:16;;;;;;;11.32;3.70;;;14.50;99.90;;;;;;4993462;28;20047;-86
2022/04/28 10:46:56;;;;;;;11.55;4.15;;;14.80;99.90;;;;;;5010913;28;20045;-86
2022/04/28 10:49:26;;;;;;;9.77;3.72;;;15.10;99.90;;;;;;5010819;28;20052;-87
2022/04/28 10:52:21;;;;;;;12.32;3.90;;;15.30;99.90;;;;;;5012962;28;20533;-87
2022/04/28 10:54:57;;;;;;;12.82;3.80;;;15.30;99.90;;;;;;4995545;28;20124;-86
2022/04/28 10:57:36;;;;;;;10.82;3.80;;;15.60;99.90;;;;;;5014352;28;20042;-89
2022/04/28 11:00:03;;;;;;;11.40;4.45;;;15.90;99.90;;;;;;4996073;28;20405;-86
2022/04/28 11:02:40;;;;;;;11.25;4.38;;;16.00;99.90;;;;;;4996155;28;20470;-87
2022/04/28 11:05:51;;;;;;;12.32;4.22;;;17.20;99.90;;;;;;5014348;28;20060;-87
2022/04/28 11:08:24;;;;;;;10.95;4.15;;;16.50;99.90;;;;;;4982226;28;20058;-87
2022/04/28 11:11:03;;;;;;;10.20;4.30;;;16.80;99.90;;;;;;5012933;28;20045;-87
2022/04/28 11:13:30;;;;;;;10.50;4.63;;;17.00;99.90;;;;;;5013653;28;20045;-86
2022/04/28 11:16:16;;;;;;;11.68;4.10;;;17.00;99.90;;;;;;5015533;28;20050;-88
2022/04/28 11:18:43;;;;;;;12.68;4.15;;;17.00;99.90;;;;;;5013379;28;20066;-84
2022/04/28 11:21:09;;;;;;;10.55;3.72;;;16.80;99.90;;;;;;4996140;28;20050;-88
2022/04/28 11:23:42;;;;;;;11.18;4.20;;;16.60;99.90;;;;;;4995720;28;20405;-88
2022/04/28 11:26:08;;;;;;;12.85;4.72;;;15.80;99.90;;;;;;4996654;28;20378;-87
2022/04/28 11:28:43;;;;;;;11.50;4.47;;;16.00;99.90;;;;;;4995609;28;20054;-88
2022/04/28 11:31:58;;;;;;;11.07;4.18;;;15.70;99.90;;;;;;5022468;22;20056;-89
2022/04/28 11:37:17;;;;;;;11.43;4.03;;;15.70;99.90;;;;;;5502647;22;20053;-89
2022/04/28 11:39:44;;;;;;;11.43;4.20;;;15.90;99.90;;;;;;5051029;28;20397;-84
2022/04/28 11:42:16;;;;;;;11.50;4.43;;;17.20;99.90;;;;;;5051950;28;20119;-86
2022/04/28 11:44:46;;;;;;;10.48;4.55;;;16.20;99.90;;;;;;5050324;28;20136;-86
2022/04/28 11:47:12;;;;;;;12.40;4.78;;;16.10;99.90;;;;;;5051991;28;20044;-85
2022/04/28 11:49:40;;;;;;;11.05;4.10;;;15.70;99.90;;;;;;5052984;28;20040;-87
2022/04/28 11:52:23;;;;;;;11.48;4.55;;;15.80;99.90;;;;;;5052197;28;20045;-86
2022/04/28 11:55:01;;;;;;;11.40;4.40;;;15.70;99.90;;;;;;5051321;28;20448;-87
2022/04/28 12:03:30;;;;;;;12.75;4.43;;;16.90;99.90;;;;;;5034607;28;20110;-88
2022/04/28 12:06:01;;;;;;;11.90;4.40;;;17.50;99.90;;;;;;5051990;28;20542;-89
2022/04/28 12:08:46;;;;;;;11.27;4.40;;;17.80;99.90;;;;;;5035054;28;20072;-88
2022/04/28 12:14:25;;;;;;;13.10;4.57;;;17.30;99.20;;;;;;5034695;28;20416;-91
2022/04/28 12:20:01;;;;;;;10.90;4.53;;;17.10;98.70;;;;;;5037897;28;20424;-89
2022/04/28 12:22:31;;;;;;;16.50;4.95;;;16.60;99.40;;;;;;5034275;28;20596;-89
2022/04/28 12:25:18;;;;;;;10.63;4.47;;;15.10;99.90;;;;;;5052203;28;20077;-89
2022/04/28 12:27:47;;;;;;;14.82;4.63;;;15.40;99.90;;;;;;5051662;28;20055;-90
2022/04/28 12:30:25;;;;;;;12.93;4.72;;;15.50;99.90;;;;;;5052204;28;20037;-89
2022/04/28 12:32:54;;;;;;;13.00;4.40;;;15.50;99.90;;;;;;5034448;28;20052;-91
2022/04/28 12:35:36;;;;;;;12.30;4.20;;;15.20;99.90;;;;;;5033712;28;20098;-90
2022/04/28 12:38:10;;;;;;;10.38;4.03;;;15.00;99.90;;;;;;5034185;28;20044;-91
2022/04/28 12:40:59;;;;;;;11.73;4.40;;;14.90;99.90;;;;;;5034561;28;20064;-92
2022/04/28 12:43:48;;;;;;;11.80;4.55;;;16.00;99.90;;;;;;5035399;28;20481;-91
2022/04/28 12:46:17;;;;;;;12.18;4.50;;;15.00;99.90;;;;;;5035428;28;20045;-87
2022/04/28 12:48:53;;;;;;;11.65;4.70;;;15.10;99.90;;;;;;5055948;28;20091;-91
2022/04/28 12:51:21;;;;;;;15.63;4.70;;;15.10;99.90;;;;;;5039481;28;20060;-91
2022/04/28 12:53:50;;;;;;;15.32;5.00;;;14.80;99.90;;;;;;5056430;28;20091;-91
2022/04/28 12:56:29;;;;;;;12.45;4.40;;;14.80;99.90;;;;;;5056134;28;20056;-91
2022/04/28 12:58:57;;;;;;;12.13;4.78;;;15.50;99.90;;;;;;5046106;28;20044;-91
2022/04/28 13:01:23;;;;;;;11.55;4.60;;;15.70;99.90;;;;;;5057690;28;20052;-90
2022/04/28 13:03:57;;;;;;;12.52;4.75;;;15.60;99.90;;;;;;5058188;28;20131;-90
2022/04/28 13:06:28;;;;;;;;;;;15.40;99.90;;;;;;5057688;28;20123;-91
2022/04/28 13:09:01;;;;;;;11.82;4.93;;;15.10;99.90;;;;;;5075874;28;19921;-95
2022/04/28 13:11:39;;;;;;;12.85;4.82;;;14.70;99.90;;;;;;5059437;28;20044;-92
2022/04/28 13:14:52;;;;;;;12.13;4.97;;;14.10;99.90;;;;;;5061174;28;20041;-94
2022/04/28 13:17:18;;;;;;;13.07;4.57;;;15.40;99.90;;;;;;4978357;28;20042;-87
2022/04/28 13:19:47;;;;;;;11.95;4.85;;;16.20;99.90;;;;;;4994092;28;20050;-90
2022/04/28 13:22:12;;;;;;;12.70;4.78;;;16.60;99.90;;;;;;4998265;28;20123;-87
2022/04/28 13:24:38;;;;;;;11.35;4.30;;;16.60;99.90;;;;;;5014311;28;20052;-96
2022/04/28 13:27:07;;;;;;;12.00;4.93;;;16.90;99.90;;;;;;5075786;28;20051;-95
2022/04/28 13:29:33;;;;;;;11.77;4.68;;;16.90;99.40;;;;;;5076241;28;20040;-85
2022/04/28 13:31:59;;;;;;;12.10;4.07;;;17.40;99.90;;;;;;5057287;28;20059;-86
2022/04/28 13:34:24;;;;;;;12.48;4.80;;;16.50;99.70;;;;;;5075163;28;20435;-87
2022/04/28 13:36:51;;;;;;;13.32;4.63;;;17.00;99.90;;;;;;5056820;28;20071;-87
2022/04/28 13:39:18;;;;;;;16.88;4.88;;;16.30;99.90;;;;;;5057402;28;20044;-85
2022/04/28 13:41:46;;;;;;;13.32;4.63;;;16.20;99.90;;;;;;5074015;28;20036;-85